createdAt,value
2016-10-11T00:00:20.894Z,935.52
2016-10-11T00:01:20.980Z,935.53
2016-10-11T00:02:21.011Z,935.51
2016-10-11T00:03:21.047Z,935.57
2016-10-11T00:04:21.099Z,935.6
2016-10-11T00:05:21.205Z,935.54
2016-10-11T00:06:21.236Z,935.62
2016-10-11T00:07:21.250Z,935.6
2016-10-11T00:08:21.300Z,935.57
2016-10-11T00:09:21.397Z,935.54
2016-10-11T00:10:21.460Z,935.53
2016-10-11T00:11:21.469Z,935.57
2016-10-11T00:12:21.496Z,935.55
2016-10-11T00:13:21.558Z,935.55
2016-10-11T00:14:21.656Z,935.49
2016-10-11T00:15:21.666Z,935.48
2016-10-11T00:16:21.746Z,935.48
2016-10-11T00:17:21.758Z,935.46
2016-10-11T00:18:21.813Z,935.43
2016-10-11T00:19:21.916Z,935.43
2016-10-11T00:20:21.911Z,935.46
2016-10-11T00:21:21.960Z,935.41
2016-10-11T00:22:22.010Z,935.43
2016-10-11T00:23:22.079Z,935.44
2016-10-11T00:24:22.107Z,935.41
2016-10-11T00:25:22.207Z,935.36
2016-10-11T00:26:22.247Z,935.44
2016-10-11T00:27:22.320Z,935.4
2016-10-11T00:28:22.313Z,935.4
2016-10-11T00:29:22.361Z,935.4
2016-10-11T00:30:22.415Z,935.35
2016-10-11T00:31:22.500Z,935.29
2016-10-11T00:32:22.510Z,935.35
2016-10-11T00:33:22.562Z,935.3
2016-10-11T00:34:22.644Z,935.33
2016-10-11T00:35:22.701Z,935.4
2016-10-11T00:36:22.737Z,935.4
2016-10-11T00:37:22.760Z,935.37
2016-10-11T00:38:22.836Z,935.42
2016-10-11T00:39:22.910Z,935.37
2016-10-11T00:40:22.921Z,935.42
2016-10-11T00:41:23.018Z,935.4
2016-10-11T00:42:23.029Z,935.42
2016-10-11T00:43:23.078Z,935.43
2016-10-11T00:44:23.198Z,935.43
2016-10-11T00:45:23.179Z,935.49
2016-10-11T00:46:23.258Z,935.52
2016-10-11T00:47:23.297Z,935.48
2016-10-11T00:48:23.318Z,935.43
2016-10-11T00:49:23.435Z,935.46
2016-10-11T00:50:23.419Z,935.39
2016-10-11T00:51:23.510Z,935.41
2016-10-11T00:52:23.576Z,935.49
2016-10-11T00:53:23.625Z,935.45
2016-10-11T00:54:23.633Z,935.45
2016-10-11T00:55:23.698Z,935.49
2016-10-11T00:56:23.736Z,935.5
2016-10-11T00:57:26.843Z,935.52
2016-10-11T00:58:23.884Z,935.54
2016-10-11T00:59:23.915Z,935.57
2016-10-11T01:00:23.936Z,935.54
2016-10-11T01:01:23.999Z,935.54
2016-10-11T01:02:24.034Z,935.55
2016-10-11T01:03:24.152Z,935.54
2016-10-11T01:04:24.136Z,935.54
2016-10-11T01:05:24.185Z,935.48
2016-10-11T01:06:24.239Z,935.47
2016-10-11T01:07:24.293Z,935.51
2016-10-11T01:08:24.331Z,935.5
2016-10-11T01:09:24.401Z,935.43
2016-10-11T01:10:24.430Z,935.44
2016-10-11T01:11:24.521Z,935.46
2016-10-11T01:12:24.571Z,935.49
2016-10-11T01:13:24.607Z,935.4
2016-10-11T01:14:24.692Z,935.44
2016-10-11T01:15:24.695Z,935.45
2016-10-11T01:16:24.757Z,935.47
2016-10-11T01:17:24.810Z,935.45
2016-10-11T01:18:24.844Z,935.51
2016-10-11T01:19:24.885Z,935.51
2016-10-11T01:20:24.992Z,935.5
2016-10-11T01:21:25.010Z,935.51
2016-10-11T01:22:25.052Z,935.54
2016-10-11T01:23:25.111Z,935.47
2016-10-11T01:24:25.139Z,935.47
2016-10-11T01:25:25.205Z,935.48
2016-10-11T01:26:25.238Z,935.55
2016-10-11T01:27:25.295Z,935.52
2016-10-11T01:28:25.374Z,935.51
2016-10-11T01:29:25.403Z,935.45
2016-10-11T01:30:25.494Z,935.5
2016-10-11T01:31:25.509Z,935.48
2016-10-11T01:32:25.563Z,935.48
2016-10-11T01:33:25.650Z,935.44
2016-10-11T01:34:25.719Z,935.43
2016-10-11T01:35:25.798Z,935.37
2016-10-11T01:36:25.757Z,935.4
2016-10-11T01:37:25.842Z,935.37
2016-10-11T01:38:25.861Z,935.38
2016-10-11T01:39:25.962Z,935.35
2016-10-11T01:40:25.975Z,935.39
2016-10-11T01:41:26.052Z,935.41
2016-10-11T01:42:26.087Z,935.36
2016-10-11T01:43:26.157Z,935.35
2016-10-11T01:44:26.157Z,935.38
2016-10-11T01:45:26.253Z,935.43
2016-10-11T01:46:26.310Z,935.44
2016-10-11T01:47:26.308Z,935.37
2016-10-11T01:48:26.357Z,935.4
2016-10-11T01:49:26.414Z,935.44
2016-10-11T01:50:26.466Z,935.42
2016-10-11T01:51:26.547Z,935.4
2016-10-11T01:52:26.573Z,935.37
2016-10-11T01:53:26.600Z,935.38
2016-10-11T01:54:26.674Z,935.39
2016-10-11T01:55:26.755Z,935.33
2016-10-11T01:56:26.765Z,935.35
2016-10-11T01:57:26.827Z,935.3
2016-10-11T01:58:26.862Z,935.3
2016-10-11T01:59:26.965Z,935.28
2016-10-11T02:00:26.964Z,935.29
2016-10-11T02:01:27.016Z,935.21
2016-10-11T02:02:27.067Z,935.23
2016-10-11T02:03:27.105Z,935.2
2016-10-11T02:04:27.182Z,935.21
2016-10-11T02:05:27.209Z,935.18
2016-10-11T02:06:27.282Z,935.18
2016-10-11T02:07:27.349Z,935.18
2016-10-11T02:08:27.400Z,935.16
2016-10-11T02:09:27.476Z,935.15
2016-10-11T02:10:27.537Z,935.15
2016-10-11T02:11:27.533Z,935.11
2016-10-11T02:12:27.569Z,935.06
2016-10-11T02:13:27.658Z,935.03
2016-10-11T02:14:27.669Z,934.98
2016-10-11T02:15:27.769Z,935.01
2016-10-11T02:16:27.771Z,935
2016-10-11T02:17:27.854Z,934.95
2016-10-11T02:18:27.873Z,935.04
2016-10-11T02:19:27.934Z,935.02
2016-10-11T02:20:27.973Z,934.95
2016-10-11T02:21:28.018Z,934.94
2016-10-11T02:22:28.067Z,934.93
2016-10-11T02:23:28.140Z,934.89
2016-10-11T02:24:28.185Z,934.88
2016-10-11T02:25:28.259Z,934.88
2016-10-11T02:26:28.310Z,934.9
2016-10-11T02:27:28.347Z,934.85
2016-10-11T02:28:28.387Z,934.86
2016-10-11T02:29:28.461Z,934.83
2016-10-11T02:30:28.484Z,934.79
2016-10-11T02:31:28.531Z,934.77
2016-10-11T02:32:28.576Z,934.7
2016-10-11T02:33:28.631Z,934.63
2016-10-11T02:34:28.703Z,934.59
2016-10-11T02:35:28.766Z,934.51
2016-10-11T02:36:28.798Z,934.48
2016-10-11T02:37:28.840Z,934.45
2016-10-11T02:38:28.891Z,934.37
2016-10-11T02:39:28.931Z,934.37
2016-10-11T02:40:28.988Z,934.39
2016-10-11T02:41:29.045Z,934.34
2016-10-11T02:42:29.093Z,934.41
2016-10-11T02:43:29.142Z,934.39
2016-10-11T02:44:29.191Z,934.35
2016-10-11T02:45:29.275Z,934.33
2016-10-11T02:46:29.313Z,934.32
2016-10-11T02:47:29.347Z,934.27
2016-10-11T02:48:29.447Z,934.21
2016-10-11T02:49:29.460Z,934.21
2016-10-11T02:50:29.496Z,934.22
2016-10-11T02:51:29.605Z,934.23
2016-10-11T02:52:29.586Z,934.21
2016-10-11T02:53:29.664Z,934.2
2016-10-11T02:54:29.688Z,934.21
2016-10-11T02:55:29.766Z,934.26
2016-10-11T02:56:29.831Z,934.23
2016-10-11T02:57:29.864Z,934.18
2016-10-11T02:58:29.911Z,934.12
2016-10-11T02:59:29.988Z,934.17
2016-10-11T03:00:30.002Z,934.15
2016-10-11T03:01:30.062Z,934.05
2016-10-11T03:02:30.148Z,934.1
2016-10-11T03:03:30.163Z,934.08
2016-10-11T03:04:30.205Z,934.07
2016-10-11T03:05:30.270Z,934.09
2016-10-11T03:06:30.299Z,934.09
2016-10-11T03:07:30.357Z,934.14
2016-10-11T03:08:30.440Z,934.09
2016-10-11T03:09:30.505Z,934.1
2016-10-11T03:10:30.500Z,934.06
2016-10-11T03:11:30.562Z,934.07
2016-10-11T03:12:30.604Z,934.08
2016-10-11T03:13:30.712Z,934.03
2016-10-11T03:14:30.703Z,934.05
2016-10-11T03:15:30.781Z,933.99
2016-10-11T03:16:30.848Z,933.98
2016-10-11T03:17:30.918Z,934
2016-10-11T03:18:30.929Z,933.97
2016-10-11T03:19:31.015Z,933.96
2016-10-11T03:20:31.041Z,933.92
2016-10-11T03:21:31.076Z,933.86
2016-10-11T03:22:31.124Z,933.89
2016-10-11T03:23:31.204Z,933.83
2016-10-11T03:24:31.236Z,933.79
2016-10-11T03:25:31.290Z,933.76
2016-10-11T03:26:31.314Z,933.79
2016-10-11T03:27:31.366Z,933.73
2016-10-11T03:28:31.440Z,933.7
2016-10-11T03:29:31.482Z,933.73
2016-10-11T03:30:31.530Z,933.7
2016-10-11T03:31:31.598Z,933.7
2016-10-11T03:32:31.636Z,933.71
2016-10-11T03:33:31.698Z,933.66
2016-10-11T03:34:31.730Z,933.67
2016-10-11T03:35:31.786Z,933.7
2016-10-11T03:36:31.905Z,933.64
2016-10-11T03:37:31.890Z,933.66
2016-10-11T03:38:31.968Z,933.67
2016-10-11T03:39:32.020Z,933.69
2016-10-11T03:40:32.058Z,933.7
2016-10-11T03:41:32.106Z,933.69
2016-10-11T03:42:32.145Z,933.67
2016-10-11T03:43:32.236Z,933.66
2016-10-11T03:44:32.230Z,933.63
2016-10-11T03:45:32.330Z,933.69
2016-10-11T03:46:32.376Z,933.69
2016-10-11T03:47:32.426Z,933.67
2016-10-11T03:48:32.461Z,933.68
2016-10-11T03:49:32.527Z,933.72
2016-10-11T03:50:32.579Z,933.7
2016-10-11T03:51:32.631Z,933.72
2016-10-11T03:52:32.649Z,933.72
2016-10-11T03:53:32.743Z,933.69
2016-10-11T03:54:32.813Z,933.68
2016-10-11T03:55:32.807Z,933.69
2016-10-11T03:56:32.854Z,933.7
2016-10-11T03:57:32.894Z,933.64
2016-10-11T03:58:32.956Z,933.62
2016-10-11T03:59:33.028Z,933.62
2016-10-11T04:00:33.073Z,933.58
2016-10-11T04:01:33.110Z,933.6
2016-10-11T04:02:33.159Z,933.57
2016-10-11T04:03:33.208Z,933.56
2016-10-11T04:04:33.333Z,933.52
2016-10-11T04:05:33.301Z,933.5
2016-10-11T04:06:33.366Z,933.53
2016-10-11T04:07:33.418Z,933.51
2016-10-11T04:08:33.481Z,933.54
2016-10-11T04:09:33.514Z,933.52
2016-10-11T04:10:33.567Z,933.52
2016-10-11T04:11:33.604Z,933.56
2016-10-11T04:12:33.699Z,933.53
2016-10-11T04:13:33.750Z,933.56
2016-10-11T04:14:33.760Z,933.59
2016-10-11T04:15:33.840Z,933.58
2016-10-11T04:16:33.872Z,933.58
2016-10-11T04:17:33.939Z,933.52
2016-10-11T04:18:33.969Z,933.51
2016-10-11T04:19:34.039Z,933.5
2016-10-11T04:20:34.085Z,933.52
2016-10-11T04:21:34.144Z,933.49
2016-10-11T04:22:34.206Z,933.53
2016-10-11T04:23:34.231Z,933.49
2016-10-11T04:24:34.283Z,933.5
2016-10-11T04:25:34.326Z,933.46
2016-10-11T04:26:34.396Z,933.53
2016-10-11T04:27:34.464Z,933.45
2016-10-11T04:28:34.504Z,933.44
2016-10-11T04:29:34.537Z,933.42
2016-10-11T04:30:34.584Z,933.37
2016-10-11T04:31:34.646Z,933.39
2016-10-11T04:32:34.704Z,933.32
2016-10-11T04:33:34.753Z,933.29
2016-10-11T04:34:34.806Z,933.33
2016-10-11T04:35:34.858Z,933.33
2016-10-11T04:36:34.901Z,933.36
2016-10-11T04:37:34.957Z,933.35
2016-10-11T04:38:35.000Z,933.36
2016-10-11T04:39:35.096Z,933.35
2016-10-11T04:40:35.115Z,933.37
2016-10-11T04:41:35.198Z,933.36
2016-10-11T04:42:35.228Z,933.37
2016-10-11T04:43:35.237Z,933.34
2016-10-11T04:44:35.313Z,933.34
2016-10-11T04:45:35.339Z,933.29
2016-10-11T04:46:35.403Z,933.26
2016-10-11T04:47:35.450Z,933.27
2016-10-11T04:48:35.558Z,933.29
2016-10-11T04:49:35.585Z,933.32
2016-10-11T04:50:35.603Z,933.33
2016-10-11T04:51:35.708Z,933.31
2016-10-11T04:52:35.752Z,933.33
2016-10-11T04:53:35.773Z,933.36
2016-10-11T04:54:35.809Z,933.34
2016-10-11T04:55:35.861Z,933.33
2016-10-11T04:56:35.904Z,933.33
2016-10-11T04:57:36.013Z,933.32
2016-10-11T04:58:36.042Z,933.35
2016-10-11T04:59:36.052Z,933.31
2016-10-11T05:00:36.107Z,933.32
2016-10-11T05:01:36.166Z,933.34
2016-10-11T05:02:36.216Z,933.31
2016-10-11T05:03:36.282Z,933.31
2016-10-11T05:04:36.347Z,933.31
2016-10-11T05:05:36.357Z,933.31
2016-10-11T05:06:36.434Z,933.3
2016-10-11T05:07:36.459Z,933.25
2016-10-11T05:08:36.521Z,933.27
2016-10-11T05:09:36.571Z,933.29
2016-10-11T05:10:36.637Z,933.28
2016-10-11T05:11:36.679Z,933.3
2016-10-11T05:12:36.729Z,933.3
2016-10-11T05:13:36.794Z,933.3
2016-10-11T05:14:36.858Z,933.29
2016-10-11T05:15:36.878Z,933.29
2016-10-11T05:16:36.944Z,933.29
2016-10-11T05:17:37.013Z,933.29
2016-10-11T05:18:37.033Z,933.25
2016-10-11T05:19:37.097Z,933.31
2016-10-11T05:20:37.166Z,933.23
2016-10-11T05:21:37.205Z,933.23
2016-10-11T05:22:37.225Z,933.22
2016-10-11T05:23:37.292Z,933.15
2016-10-11T05:24:37.333Z,933.17
2016-10-11T05:25:37.387Z,933.15
2016-10-11T05:26:37.448Z,933.13
2016-10-11T05:27:37.491Z,933.11
2016-10-11T05:28:37.590Z,933.14
2016-10-11T05:29:37.596Z,933.12
2016-10-11T05:30:37.661Z,933.11
2016-10-11T05:31:37.727Z,933.14
2016-10-11T05:32:37.747Z,933.11
2016-10-11T05:33:37.797Z,933.1
2016-10-11T05:34:37.880Z,933.05
2016-10-11T05:35:37.900Z,933.06
2016-10-11T05:36:37.951Z,933.04
2016-10-11T05:37:38.025Z,933.01
2016-10-11T05:38:38.089Z,932.98
2016-10-11T05:39:38.135Z,932.95
2016-10-11T05:40:38.188Z,932.98
2016-10-11T05:41:38.237Z,932.99
2016-10-11T05:42:38.254Z,932.95
2016-10-11T05:43:38.320Z,932.97
2016-10-11T05:44:38.359Z,932.93
2016-10-11T05:45:38.443Z,932.9
2016-10-11T05:46:38.459Z,932.88
2016-10-11T05:47:38.563Z,932.88
2016-10-11T05:48:38.601Z,932.87
2016-10-11T05:49:38.615Z,932.9
2016-10-11T05:50:38.667Z,932.9
2016-10-11T05:51:38.708Z,932.93
2016-10-11T05:52:38.783Z,932.98
2016-10-11T05:53:38.836Z,932.98
2016-10-11T05:54:38.909Z,932.95
2016-10-11T05:55:38.932Z,932.95
2016-10-11T05:56:38.984Z,932.9
2016-10-11T05:57:39.042Z,932.88
2016-10-11T05:58:39.084Z,932.84
2016-10-11T05:59:39.172Z,932.89
2016-10-11T06:00:39.189Z,932.82
2016-10-11T06:01:39.229Z,932.81
2016-10-11T06:02:39.328Z,932.81
2016-10-11T06:03:39.364Z,932.8
2016-10-11T06:04:39.384Z,932.83
2016-10-11T06:05:39.468Z,932.83
2016-10-11T06:06:39.552Z,932.81
2016-10-11T06:07:39.542Z,932.81
2016-10-11T06:08:39.588Z,932.81
2016-10-11T06:09:39.644Z,932.83
2016-10-11T06:10:39.748Z,932.86
2016-10-11T06:11:39.809Z,932.83
2016-10-11T06:12:39.783Z,932.88
2016-10-11T06:13:39.910Z,932.86
2016-10-11T06:14:39.931Z,932.9
2016-10-11T06:15:40.003Z,932.92
2016-10-11T06:16:39.999Z,932.94
2016-10-11T06:17:40.063Z,932.92
2016-10-11T06:18:40.089Z,932.92
2016-10-11T06:19:40.181Z,932.89
2016-10-11T06:20:40.250Z,932.86
2016-10-11T06:21:40.285Z,932.85
2016-10-11T06:22:40.303Z,932.86
2016-10-11T06:23:40.370Z,932.84
2016-10-11T06:24:40.444Z,932.86
2016-10-11T06:25:40.468Z,932.83
2016-10-11T06:26:40.517Z,932.79
2016-10-11T06:27:40.553Z,932.8
2016-10-11T06:28:40.604Z,932.74
2016-10-11T06:29:40.656Z,932.76
2016-10-11T06:30:40.722Z,932.74
2016-10-11T06:31:40.762Z,932.71
2016-10-11T06:32:40.810Z,932.69
2016-10-11T06:33:40.899Z,932.67
2016-10-11T06:34:40.970Z,932.72
2016-10-11T06:35:40.959Z,932.73
2016-10-11T06:36:41.030Z,932.77
2016-10-11T06:37:41.106Z,932.74
2016-10-11T06:38:41.179Z,932.77
2016-10-11T06:39:41.204Z,932.77
2016-10-11T06:40:41.257Z,932.78
2016-10-11T06:41:41.265Z,932.78
2016-10-11T06:42:41.368Z,932.82
2016-10-11T06:43:41.385Z,932.83
2016-10-11T06:44:41.450Z,932.81
2016-10-11T06:45:41.494Z,932.84
2016-10-11T06:46:41.535Z,932.8
2016-10-11T06:47:41.580Z,932.83
2016-10-11T06:48:41.631Z,932.85
2016-10-11T06:49:41.700Z,932.84
2016-10-11T06:50:41.739Z,932.83
2016-10-11T06:51:41.824Z,932.83
2016-10-11T06:52:41.851Z,932.84
2016-10-11T06:53:41.904Z,932.75
2016-10-11T06:54:41.934Z,932.73
2016-10-11T06:55:42.002Z,932.8
2016-10-11T06:56:42.115Z,932.8
2016-10-11T06:57:42.094Z,932.74
2016-10-11T06:58:42.157Z,932.79
2016-10-11T06:59:42.194Z,932.78
2016-10-11T07:00:42.246Z,932.81
2016-10-11T07:01:42.299Z,932.81
2016-10-11T07:02:42.369Z,932.81
2016-10-11T07:03:42.394Z,932.74
2016-10-11T07:04:42.450Z,932.72
2016-10-11T07:05:42.493Z,932.71
2016-10-11T07:06:42.543Z,932.74
2016-10-11T07:07:42.661Z,932.77
2016-10-11T07:08:42.700Z,932.8
2016-10-11T07:09:42.703Z,932.78
2016-10-11T07:10:42.810Z,932.8
2016-10-11T07:11:42.862Z,932.79
2016-10-11T07:12:42.857Z,932.76
2016-10-11T07:13:42.902Z,932.76
2016-10-11T07:14:43.020Z,932.81
2016-10-11T07:15:43.028Z,932.82
2016-10-11T07:16:43.063Z,932.79
2016-10-11T07:17:43.108Z,932.83
2016-10-11T07:18:43.212Z,932.84
2016-10-11T07:19:43.239Z,932.81
2016-10-11T07:20:43.268Z,932.81
2016-10-11T07:21:43.336Z,932.8
2016-10-11T07:22:43.387Z,932.82
2016-10-11T07:23:43.419Z,932.79
2016-10-11T07:24:43.494Z,932.87
2016-10-11T07:25:43.562Z,932.89
2016-10-11T07:26:43.633Z,932.85
2016-10-11T07:27:43.630Z,932.88
2016-10-11T07:28:43.676Z,932.87
2016-10-11T07:29:43.735Z,932.84
2016-10-11T07:30:43.780Z,932.89
2016-10-11T07:31:43.823Z,932.88
2016-10-11T07:32:43.917Z,932.83
2016-10-11T07:33:43.955Z,932.86
2016-10-11T07:34:44.043Z,932.86
2016-10-11T07:35:44.074Z,932.83
2016-10-11T07:36:44.108Z,932.83
2016-10-11T07:37:44.176Z,932.83
2016-10-11T07:38:44.181Z,932.87
2016-10-11T07:39:44.231Z,932.83
2016-10-11T07:40:44.289Z,932.89
2016-10-11T07:41:44.333Z,932.88
2016-10-11T07:42:44.427Z,932.86
2016-10-11T07:43:44.475Z,932.89
2016-10-11T07:44:44.527Z,932.87
2016-10-11T07:45:44.589Z,932.88
2016-10-11T07:46:44.598Z,932.91
2016-10-11T07:47:44.659Z,932.92
2016-10-11T07:48:44.720Z,932.97
2016-10-11T07:49:44.742Z,932.99
2016-10-11T07:50:44.817Z,932.99
2016-10-11T07:51:44.848Z,933.02
2016-10-11T07:52:44.922Z,933.06
2016-10-11T07:53:44.969Z,933.04
2016-10-11T07:54:45.008Z,933.05
2016-10-11T07:55:45.047Z,933.08
2016-10-11T07:56:45.097Z,933.11
2016-10-11T07:57:45.167Z,933.11
2016-10-11T07:58:45.246Z,933.12
2016-10-11T07:59:45.284Z,933.16
2016-10-11T08:00:45.328Z,933.17
2016-10-11T08:01:45.395Z,933.17
2016-10-11T08:02:45.451Z,933.16
2016-10-11T08:03:45.456Z,933.18
2016-10-11T08:04:45.533Z,933.13
2016-10-11T08:05:45.581Z,933.22
2016-10-11T08:06:45.665Z,933.23
2016-10-11T08:07:45.716Z,933.24
2016-10-11T08:08:45.724Z,933.26
2016-10-11T08:09:45.773Z,933.27
2016-10-11T08:10:45.813Z,933.25
2016-10-11T08:11:45.866Z,933.25
2016-10-11T08:12:45.941Z,933.31
2016-10-11T08:13:45.964Z,933.29
2016-10-11T08:14:46.072Z,933.34
2016-10-11T08:15:46.077Z,933.38
2016-10-11T08:16:46.133Z,933.37
2016-10-11T08:17:46.219Z,933.43
2016-10-11T08:18:46.234Z,933.42
2016-10-11T08:19:46.285Z,933.42
2016-10-11T08:20:46.324Z,933.44
2016-10-11T08:21:46.417Z,933.43
2016-10-11T08:22:46.458Z,933.47
2016-10-11T08:23:46.502Z,933.45
2016-10-11T08:24:46.597Z,933.48
2016-10-11T08:25:46.605Z,933.48
2016-10-11T08:26:46.673Z,933.48
2016-10-11T08:27:46.703Z,933.5
2016-10-11T08:28:46.749Z,933.5
2016-10-11T08:29:46.796Z,933.54
2016-10-11T08:30:46.878Z,933.49
2016-10-11T08:31:46.886Z,933.53
2016-10-11T08:32:46.950Z,933.59
2016-10-11T08:33:47.005Z,933.57
2016-10-11T08:34:47.060Z,933.56
2016-10-11T08:35:47.144Z,933.57
2016-10-11T08:36:47.147Z,933.6
2016-10-11T08:37:47.206Z,933.63
2016-10-11T08:38:47.284Z,933.62
2016-10-11T08:39:47.347Z,933.69
2016-10-11T08:40:47.390Z,933.71
2016-10-11T08:41:47.403Z,933.68
2016-10-11T08:42:47.473Z,933.74
2016-10-11T08:43:47.530Z,933.75
2016-10-11T08:44:47.578Z,933.77
2016-10-11T08:45:47.616Z,933.8
2016-10-11T08:46:47.701Z,933.82
2016-10-11T08:47:47.734Z,933.82
2016-10-11T08:48:47.766Z,933.85
2016-10-11T08:49:47.868Z,933.82
2016-10-11T08:50:47.862Z,933.84
2016-10-11T08:51:47.952Z,933.83
2016-10-11T08:52:47.986Z,933.83
2016-10-11T08:53:48.072Z,933.85
2016-10-11T08:54:48.088Z,933.89
2016-10-11T08:55:48.169Z,933.86
2016-10-11T08:56:48.165Z,933.84
2016-10-11T08:57:48.229Z,933.82
2016-10-11T08:58:48.309Z,933.87
2016-10-11T08:59:48.335Z,933.88
2016-10-11T09:00:48.370Z,933.86
2016-10-11T09:01:48.439Z,933.89
2016-10-11T09:02:48.498Z,933.89
2016-10-11T09:03:48.526Z,933.93
2016-10-11T09:04:48.587Z,933.97
2016-10-11T09:05:48.652Z,934.01
2016-10-11T09:06:48.740Z,933.97
2016-10-11T09:07:48.730Z,933.99
2016-10-11T09:08:48.838Z,934.01
2016-10-11T09:09:48.902Z,934.02
2016-10-11T09:10:48.927Z,934
2016-10-11T09:11:48.992Z,934.04
2016-10-11T09:12:49.002Z,934.05
2016-10-11T09:13:49.046Z,934.1
2016-10-11T09:14:49.155Z,934.09
2016-10-11T09:15:49.183Z,934.1
2016-10-11T09:16:49.234Z,934.18
2016-10-11T09:17:49.257Z,934.22
2016-10-11T09:18:49.305Z,934.23
2016-10-11T09:19:49.372Z,934.24
2016-10-11T09:20:49.407Z,934.32
2016-10-11T09:21:49.480Z,934.3
2016-10-11T09:22:49.512Z,934.3
2016-10-11T09:23:49.597Z,934.34
2016-10-11T09:24:49.612Z,934.35
2016-10-11T09:25:49.693Z,934.33
2016-10-11T09:26:49.729Z,934.34
2016-10-11T09:27:49.781Z,934.33
2016-10-11T09:28:49.871Z,934.37
2016-10-11T09:29:49.872Z,934.42
2016-10-11T09:30:49.932Z,934.46
2016-10-11T09:31:50.001Z,934.54
2016-10-11T09:32:50.052Z,934.6
2016-10-11T09:33:50.073Z,934.56
2016-10-11T09:34:50.180Z,934.5
2016-10-11T09:35:50.190Z,934.48
2016-10-11T09:36:50.229Z,934.55
2016-10-11T09:37:50.307Z,934.65
2016-10-11T09:38:50.360Z,934.65
2016-10-11T09:39:50.379Z,934.65
2016-10-11T09:40:50.446Z,934.64
2016-10-11T09:41:50.489Z,934.62
2016-10-11T09:42:50.565Z,934.59
2016-10-11T09:43:50.574Z,934.59
2016-10-11T09:44:50.632Z,934.55
2016-10-11T09:45:50.698Z,934.53
2016-10-11T09:46:50.754Z,934.53
2016-10-11T09:47:50.789Z,934.57
2016-10-11T09:48:50.856Z,934.53
2016-10-11T09:49:50.906Z,934.59
2016-10-11T09:50:50.973Z,934.54
2016-10-11T09:51:51.046Z,934.56
2016-10-11T09:52:51.039Z,934.5
2016-10-11T09:53:51.109Z,934.53
2016-10-11T09:54:51.148Z,934.57
2016-10-11T09:55:51.230Z,934.58
2016-10-11T09:56:51.264Z,934.59
2016-10-11T09:57:51.352Z,934.54
2016-10-11T09:58:51.374Z,934.53
2016-10-11T09:59:51.394Z,934.54
2016-10-11T10:00:51.512Z,934.58
2016-10-11T10:01:51.558Z,934.59
2016-10-11T10:02:51.561Z,934.65
2016-10-11T10:03:51.598Z,934.72
2016-10-11T10:04:51.658Z,934.71
2016-10-11T10:05:51.732Z,934.72
2016-10-11T10:06:51.763Z,934.74
2016-10-11T10:07:51.828Z,934.75
2016-10-11T10:08:51.862Z,934.71
2016-10-11T10:09:51.923Z,934.69
2016-10-11T10:10:51.967Z,934.66
2016-10-11T10:11:52.048Z,934.68
2016-10-11T10:12:52.084Z,934.68
2016-10-11T10:13:52.135Z,934.68
2016-10-11T10:14:52.162Z,934.69
2016-10-11T10:15:52.243Z,934.68
2016-10-11T10:16:52.267Z,934.67
2016-10-11T10:17:52.336Z,934.66
2016-10-11T10:18:52.410Z,934.66
2016-10-11T10:19:52.427Z,934.66
2016-10-11T10:20:52.527Z,934.68
2016-10-11T10:21:52.536Z,934.7
2016-10-11T10:22:52.597Z,934.72
2016-10-11T10:23:52.638Z,934.72
2016-10-11T10:24:52.737Z,934.73
2016-10-11T10:25:52.741Z,934.71
2016-10-11T10:26:52.785Z,934.7
2016-10-11T10:27:52.841Z,934.75
2016-10-11T10:28:52.895Z,934.78
2016-10-11T10:29:52.988Z,934.83
2016-10-11T10:30:53.040Z,934.82
2016-10-11T10:31:53.043Z,934.81
2016-10-11T10:32:53.152Z,934.84
2016-10-11T10:33:53.178Z,934.84
2016-10-11T10:34:53.196Z,934.83
2016-10-11T10:35:53.302Z,934.79
2016-10-11T10:36:53.343Z,934.81
2016-10-11T10:37:53.340Z,934.82
2016-10-11T10:38:53.413Z,934.79
2016-10-11T10:39:53.506Z,934.78
2016-10-11T10:40:53.513Z,934.78
2016-10-11T10:41:53.549Z,934.74
2016-10-11T10:42:53.624Z,934.72
2016-10-11T10:43:53.667Z,934.77
2016-10-11T10:44:53.745Z,934.81
2016-10-11T10:45:53.813Z,934.81
2016-10-11T10:46:53.813Z,934.78
2016-10-11T10:47:53.904Z,934.81
2016-10-11T10:48:53.919Z,934.83
2016-10-11T10:49:53.972Z,934.88
2016-10-11T10:50:54.014Z,934.83
2016-10-11T10:51:54.062Z,934.8
2016-10-11T10:52:54.129Z,934.78
2016-10-11T10:53:54.174Z,934.75
2016-10-11T10:54:54.268Z,934.77
2016-10-11T10:55:54.269Z,934.79
2016-10-11T10:56:54.322Z,934.74
2016-10-11T10:57:54.382Z,934.71
2016-10-11T10:58:54.427Z,934.71
2016-10-11T10:59:54.483Z,934.68
2016-10-11T11:00:54.555Z,934.68
2016-10-11T11:01:54.598Z,934.75
2016-10-11T11:02:54.641Z,934.8
2016-10-11T11:03:54.735Z,934.76
2016-10-11T11:04:54.772Z,934.8
2016-10-11T11:05:54.852Z,934.83
2016-10-11T11:06:54.841Z,934.79
2016-10-11T11:07:54.917Z,934.8
2016-10-11T11:08:55.014Z,934.84
2016-10-11T11:09:54.993Z,934.79
2016-10-11T11:10:55.081Z,934.75
2016-10-11T11:11:55.097Z,934.8
2016-10-11T11:12:55.193Z,934.75
2016-10-11T11:13:55.219Z,934.76
2016-10-11T11:14:55.259Z,934.76
2016-10-11T11:15:55.320Z,934.79
2016-10-11T11:16:55.351Z,934.78
2016-10-11T11:17:55.404Z,934.78
2016-10-11T11:18:55.482Z,934.79
2016-10-11T11:19:55.518Z,934.82
2016-10-11T11:20:55.560Z,934.79
2016-10-11T11:21:55.616Z,934.81
2016-10-11T11:22:55.666Z,934.84
2016-10-11T11:23:55.754Z,934.89
2016-10-11T11:24:55.763Z,934.88
2016-10-11T11:25:55.822Z,934.85
2016-10-11T11:26:55.887Z,934.85
2016-10-11T11:27:55.957Z,934.88
2016-10-11T11:28:56.052Z,934.84
2016-10-11T11:29:56.044Z,934.84
2016-10-11T11:30:56.077Z,934.8
2016-10-11T11:31:56.185Z,934.85
2016-10-11T11:32:56.187Z,934.83
2016-10-11T11:33:56.272Z,934.74
2016-10-11T11:34:56.308Z,934.76
2016-10-11T11:35:56.394Z,934.68
2016-10-11T11:36:56.423Z,934.64
2016-10-11T11:37:56.499Z,934.61
2016-10-11T11:38:56.491Z,934.62
2016-10-11T11:39:56.561Z,934.64
2016-10-11T11:40:56.591Z,934.63
2016-10-11T11:41:56.649Z,934.65
2016-10-11T11:42:56.691Z,934.64
2016-10-11T11:43:56.824Z,934.64
2016-10-11T11:44:56.805Z,934.65
2016-10-11T11:45:56.879Z,934.63
2016-10-11T11:46:56.943Z,934.71
2016-10-11T11:47:56.947Z,934.68
2016-10-11T11:48:57.026Z,934.74
2016-10-11T11:49:57.132Z,934.77
2016-10-11T11:50:57.151Z,934.73
2016-10-11T11:51:57.180Z,934.73
2016-10-11T11:52:57.220Z,934.75
2016-10-11T11:53:57.261Z,934.69
2016-10-11T11:54:57.346Z,934.71
2016-10-11T11:55:57.402Z,934.69
2016-10-11T11:56:57.442Z,934.76
2016-10-11T11:57:57.475Z,934.74
2016-10-11T11:58:57.542Z,934.73
2016-10-11T11:59:57.577Z,934.75
2016-10-11T12:00:57.638Z,934.78
2016-10-11T12:01:57.731Z,934.84
2016-10-11T12:02:57.752Z,934.79
2016-10-11T12:03:57.848Z,934.8
2016-10-11T12:04:57.845Z,934.79
2016-10-11T12:05:57.881Z,934.75
2016-10-11T12:06:57.946Z,934.78
2016-10-11T12:07:57.994Z,934.78
2016-10-11T12:08:58.040Z,934.81
2016-10-11T12:09:58.154Z,934.83
2016-10-11T12:10:58.159Z,934.83
2016-10-11T12:11:58.217Z,934.84
2016-10-11T12:12:58.243Z,934.85
2016-10-11T12:13:58.307Z,934.86
2016-10-11T12:14:58.374Z,934.79
2016-10-11T12:15:58.413Z,934.78
2016-10-11T12:16:58.464Z,934.84
2016-10-11T12:17:58.519Z,934.86
2016-10-11T12:18:58.573Z,934.86
2016-10-11T12:19:58.626Z,934.87
2016-10-11T12:20:58.697Z,934.92
2016-10-11T12:21:58.728Z,934.92
2016-10-11T12:22:58.786Z,934.88
2016-10-11T12:23:58.845Z,934.85
2016-10-11T12:24:58.907Z,934.85
2016-10-11T12:25:58.955Z,934.8
2016-10-11T12:26:58.979Z,934.81
2016-10-11T12:27:59.081Z,934.77
2016-10-11T12:28:59.097Z,934.78
2016-10-11T12:29:59.164Z,934.79
2016-10-11T12:30:59.211Z,934.78
2016-10-11T12:31:59.273Z,934.8